createdAt,value
2023-01-23T00:00:34.146Z,3.68
2023-01-23T00:03:36.428Z,3.76
2023-01-23T00:06:38.353Z,3.74
2023-01-23T00:09:40.610Z,3.76
2023-01-23T00:12:44.470Z,3.78
2023-01-23T00:15:47.974Z,3.82
2023-01-23T00:18:51.353Z,3.85
2023-01-23T00:21:53.284Z,3.82
2023-01-23T00:24:55.133Z,3.81
2023-01-23T00:27:57.285Z,3.80
2023-01-23T00:31:05.502Z,3.88
2023-01-23T00:34:11.314Z,3.80
2023-01-23T00:37:13.980Z,3.78
2023-01-23T00:40:16.238Z,3.76
2023-01-23T00:43:19.307Z,3.73
2023-01-23T00:46:22.128Z,3.78
2023-01-23T00:49:25.990Z,3.72
2023-01-23T00:52:28.267Z,3.79
2023-01-23T00:55:30.319Z,3.76
2023-01-23T00:58:33.250Z,3.80
2023-01-23T01:01:35.773Z,3.79
2023-01-23T01:04:38.264Z,3.88
2023-01-23T01:07:40.549Z,3.86
2023-01-23T01:10:43.341Z,3.88
2023-01-23T01:13:45.598Z,3.99
2023-01-23T01:16:48.348Z,3.95
2023-01-23T01:19:50.291Z,3.97
2023-01-23T01:22:53.871Z,4.04
2023-01-23T01:25:59.667Z,4.07
2023-01-23T01:29:02.890Z,3.94
2023-01-23T01:32:05.069Z,3.97
2023-01-23T01:35:09.958Z,3.93
2023-01-23T01:38:12.110Z,3.96
2023-01-23T01:41:15.694Z,3.95
2023-01-23T01:44:20.450Z,3.94
2023-01-23T01:47:22.559Z,3.95
2023-01-23T01:50:24.712Z,3.89
2023-01-23T01:53:29.121Z,3.90
2023-01-23T01:56:34.856Z,3.90
2023-01-23T01:59:43.691Z,3.86
2023-01-23T02:02:51.448Z,3.88
2023-01-23T02:05:53.753Z,3.85
2023-01-23T02:09:18.701Z,3.87
2023-01-23T02:12:21.035Z,3.87
2023-01-23T02:15:23.094Z,3.90
2023-01-23T02:18:27.034Z,3.93
2023-01-23T02:21:30.594Z,3.95
2023-01-23T02:24:45.155Z,4.00
2023-01-23T02:27:47.504Z,4.02
2023-01-23T02:30:51.238Z,3.97
2023-01-23T02:33:57.808Z,3.98
2023-01-23T02:37:03.444Z,4.02
2023-01-23T02:40:07.037Z,3.95
2023-01-23T02:43:14.337Z,3.94
2023-01-23T02:46:19.224Z,4.03
2023-01-23T02:49:22.300Z,3.98
2023-01-23T02:52:24.807Z,4.00
2023-01-23T02:55:29.882Z,3.94
2023-01-23T02:58:50.352Z,4.04
2023-01-23T03:01:52.662Z,4.13
2023-01-23T03:04:54.654Z,4.07
2023-01-23T03:07:59.069Z,4.09
2023-01-23T03:11:04.314Z,4.09
2023-01-23T03:14:10.859Z,4.16
2023-01-23T03:17:14.989Z,4.15
2023-01-23T03:20:22.512Z,4.20
2023-01-23T03:23:24.288Z,4.17
2023-01-23T03:26:26.318Z,4.18
2023-01-23T03:29:46.909Z,4.24
2023-01-23T03:32:49.478Z,4.29
2023-01-23T03:35:51.600Z,4.30
2023-01-23T03:39:13.481Z,4.32
2023-01-23T03:42:15.998Z,4.37
2023-01-23T03:45:21.527Z,4.38
2023-01-23T03:48:23.683Z,4.40
2023-01-23T03:51:25.776Z,4.45
2023-01-23T03:54:28.539Z,4.49
2023-01-23T03:57:30.553Z,4.50
2023-01-23T04:00:33.011Z,4.50
2023-01-23T04:03:36.338Z,4.54
2023-01-23T04:06:39.690Z,4.54
2023-01-23T04:09:41.935Z,4.55
2023-01-23T04:12:43.977Z,4.54
2023-01-23T04:15:45.923Z,4.59
2023-01-23T04:18:48.533Z,4.59
2023-01-23T04:21:50.745Z,4.64
2023-01-23T04:24:52.822Z,4.63
2023-01-23T04:27:54.997Z,4.61
2023-01-23T04:31:00.409Z,4.63
2023-01-23T04:34:04.015Z,4.62
2023-01-23T04:37:06.742Z,4.68
2023-01-23T04:40:10.010Z,4.67
2023-01-23T04:43:12.477Z,4.69
2023-01-23T04:46:14.793Z,4.69
2023-01-23T04:49:18.861Z,4.68
2023-01-23T04:52:20.924Z,4.66
2023-01-23T04:55:23.640Z,4.71
2023-01-23T04:58:25.854Z,4.68
2023-01-23T05:01:28.143Z,4.66
2023-01-23T05:04:30.309Z,4.76
2023-01-23T05:07:32.280Z,4.79
2023-01-23T05:10:34.511Z,4.81
2023-01-23T05:13:36.585Z,4.78
2023-01-23T05:16:40.061Z,4.86
2023-01-23T05:19:42.050Z,4.81
2023-01-23T05:22:53.364Z,4.86
2023-01-23T05:25:55.564Z,4.87
2023-01-23T05:28:57.940Z,4.82
2023-01-23T05:31:59.983Z,4.89
2023-01-23T05:35:02.190Z,4.98
2023-01-23T05:38:06.475Z,5.00
2023-01-23T05:41:08.431Z,5.04
2023-01-23T05:44:10.694Z,5.04
2023-01-23T05:47:12.940Z,5.07
2023-01-23T05:50:18.035Z,5.07
2023-01-23T05:53:20.779Z,5.10
2023-01-23T05:56:22.680Z,5.12
2023-01-23T05:59:25.169Z,5.08
2023-01-23T06:02:28.546Z,5.20
2023-01-23T06:05:30.978Z,5.24
2023-01-23T06:08:33.989Z,5.24
2023-01-23T06:11:36.618Z,5.29
2023-01-23T06:14:39.086Z,5.30
2023-01-23T06:17:44.375Z,5.27
2023-01-23T06:20:48.307Z,5.26
2023-01-23T06:23:50.866Z,5.24
2023-01-23T06:26:53.124Z,5.12
2023-01-23T06:29:55.197Z,5.13
2023-01-23T06:32:58.638Z,5.19
2023-01-23T06:36:06.900Z,5.33
2023-01-23T06:39:12.423Z,5.28
2023-01-23T06:42:17.113Z,5.30
2023-01-23T06:45:19.847Z,5.34
2023-01-23T06:48:22.520Z,5.38
2023-01-23T06:51:24.659Z,5.39
2023-01-23T06:54:28.963Z,5.47
2023-01-23T06:57:31.285Z,5.39
2023-01-23T07:00:44.698Z,5.47
2023-01-23T07:03:47.071Z,5.51
2023-01-23T07:06:51.311Z,5.54
2023-01-23T07:09:53.542Z,5.60
2023-01-23T07:12:56.232Z,5.66
2023-01-23T07:15:59.264Z,5.83
2023-01-23T07:19:27.450Z,5.77
2023-01-23T07:22:30.292Z,5.84
2023-01-23T07:25:35.824Z,5.87
2023-01-23T07:28:41.143Z,5.92
2023-01-23T07:31:48.274Z,5.88
2023-01-23T07:34:54.718Z,5.98
2023-01-23T07:37:57.535Z,5.99
2023-01-23T07:41:00.526Z,5.91
2023-01-23T07:44:07.513Z,6.07
2023-01-23T07:47:13.210Z,6.11
2023-01-23T07:50:15.870Z,6.12
2023-01-23T07:53:18.064Z,6.09
2023-01-23T07:56:20.267Z,6.11
2023-01-23T07:59:22.732Z,6.30
2023-01-23T08:02:26.110Z,6.28
2023-01-23T08:05:33.180Z,6.24
2023-01-23T08:08:37.132Z,6.26
2023-01-23T08:11:45.598Z,6.26
2023-01-23T08:14:48.639Z,6.27
2023-01-23T08:17:51.312Z,6.24
2023-01-23T08:20:58.495Z,6.33
2023-01-23T08:24:05.361Z,6.35
2023-01-23T08:27:08.227Z,6.27
2023-01-23T08:30:13.413Z,6.51
2023-01-23T08:33:16.375Z,6.40
2023-01-23T08:36:20.003Z,6.38
2023-01-23T08:39:24.819Z,6.38
2023-01-23T08:42:27.603Z,6.44
2023-01-23T08:45:30.268Z,6.40
2023-01-23T08:48:34.410Z,6.39
2023-01-23T08:51:37.788Z,6.41
2023-01-23T08:54:41.319Z,6.47
2023-01-23T08:57:46.547Z,6.49
2023-01-23T09:00:50.259Z,6.44
2023-01-23T09:03:55.378Z,6.48
2023-01-23T09:06:57.873Z,6.60
2023-01-23T09:10:01.086Z,6.66
2023-01-23T09:13:04.298Z,6.70
2023-01-23T09:16:08.796Z,6.60
2023-01-23T09:19:13.139Z,6.83
2023-01-23T09:22:16.772Z,6.85
2023-01-23T09:25:31.939Z,6.84
2023-01-23T09:28:37.445Z,6.92
2023-01-23T09:31:44.883Z,7.10
2023-01-23T09:34:55.271Z,7.11
2023-01-23T09:38:19.617Z,7.22
2023-01-23T09:41:31.709Z,7.29
2023-01-23T09:44:48.172Z,7.34
2023-01-23T09:48:08.343Z,7.34
2023-01-23T09:51:24.152Z,7.52
2023-01-23T09:54:48.981Z,7.54
2023-01-23T09:58:01.597Z,7.62
2023-01-23T10:01:03.737Z,7.88
2023-01-23T10:04:07.016Z,7.87
2023-01-23T10:07:53.786Z,8.07
2023-01-23T10:11:58.293Z,8.11
2023-01-23T10:15:53.652Z,8.18
2023-01-23T10:19:22.501Z,8.26
2023-01-23T10:26:59.301Z,8.77
2023-01-23T10:30:14.783Z,8.99
2023-01-23T10:33:22.008Z,9.09
2023-01-23T10:36:55.177Z,9.10
2023-01-23T10:40:12.730Z,9.25
2023-01-23T10:43:25.464Z,9.46
2023-01-23T10:46:49.653Z,9.89
2023-01-23T10:49:52.129Z,10.01
2023-01-23T10:53:14.288Z,10.07
2023-01-23T10:56:18.833Z,9.97
2023-01-23T10:59:26.583Z,10.02
2023-01-23T11:02:37.971Z,9.88
2023-01-23T11:06:55.721Z,9.99
2023-01-23T11:10:18.885Z,10.02
2023-01-23T11:13:31.154Z,10.02
2023-01-23T11:16:43.265Z,10.24
2023-01-23T11:19:56.904Z,10.20
2023-01-23T11:23:11.209Z,10.11
2023-01-23T11:26:34.418Z,10.06
2023-01-23T11:29:52.508Z,10.07
2023-01-23T11:33:02.153Z,10.27
2023-01-23T11:36:23.889Z,10.16
2023-01-23T11:39:43.279Z,10.33
2023-01-23T11:42:49.429Z,10.32
2023-01-23T11:46:16.971Z,10.35
2023-01-23T11:49:51.970Z,10.24
2023-01-23T11:53:16.147Z,10.49
2023-01-23T11:56:40.900Z,10.37
2023-01-23T12:00:43.349Z,10.44
2023-01-23T12:04:32.839Z,10.56
2023-01-23T12:08:11.405Z,10.66
2023-01-23T12:11:20.862Z,10.48
2023-01-23T12:14:41.837Z,10.68
2023-01-23T12:22:25.937Z,10.61
2023-01-23T12:25:39.549Z,10.51
2023-01-23T12:29:04.105Z,10.61
2023-01-23T12:32:45.002Z,10.61
2023-01-23T12:36:12.177Z,10.65
2023-01-23T12:39:36.807Z,10.62
2023-01-23T12:43:03.347Z,10.61
2023-01-23T12:46:16.513Z,10.55
2023-01-23T12:49:22.602Z,10.67
2023-01-23T12:52:42.324Z,10.89
2023-01-23T12:56:19.759Z,10.87
2023-01-23T12:59:49.889Z,10.88
2023-01-23T13:03:09.661Z,10.88
2023-01-23T13:06:50.359Z,10.85
2023-01-23T13:09:52.700Z,10.96
2023-01-23T13:12:57.181Z,10.73
2023-01-23T13:16:11.249Z,10.90
2023-01-23T13:20:03.596Z,11.01
2023-01-23T13:23:30.440Z,10.92
2023-01-23T13:26:37.465Z,10.83
2023-01-23T13:29:51.192Z,10.68
2023-01-23T13:33:47.093Z,10.73
2023-01-23T13:37:30.728Z,10.49
2023-01-23T13:40:36.189Z,10.63
2023-01-23T13:43:54.620Z,10.61
2023-01-23T14:25:47.374Z,10.04
2023-01-23T14:29:06.209Z,10.00
2023-01-23T14:32:25.579Z,9.95
2023-01-23T14:35:27.910Z,9.90
2023-01-23T14:38:35.179Z,9.87
2023-01-23T14:45:13.094Z,9.77
2023-01-23T14:48:20.754Z,9.80
2023-01-23T14:51:24.766Z,9.75
2023-01-23T14:54:33.011Z,9.62
2023-01-23T14:57:36.269Z,9.71
2023-01-23T15:00:40.611Z,9.80
2023-01-23T15:04:05.345Z,9.64
2023-01-23T15:07:17.281Z,9.63
2023-01-23T15:10:45.112Z,9.47
2023-01-23T15:13:54.931Z,9.58
2023-01-23T15:17:03.268Z,9.62
2023-01-23T15:20:26.872Z,9.76
2023-01-23T15:24:05.906Z,9.72
2023-01-23T15:27:37.372Z,9.85
2023-01-23T15:30:49.177Z,9.84
2023-01-23T15:33:55.384Z,9.61
2023-01-23T15:37:15.851Z,9.91
2023-01-23T15:40:27.855Z,9.71
2023-01-23T15:43:33.604Z,9.65
2023-01-23T15:46:36.567Z,9.59
2023-01-23T15:49:43.144Z,9.53
2023-01-23T15:52:54.065Z,9.48
2023-01-23T15:55:56.614Z,9.65
2023-01-23T15:59:01.358Z,9.48
2023-01-23T16:02:29.054Z,9.42
2023-01-23T16:05:37.229Z,9.44
2023-01-23T16:08:39.588Z,9.32
2023-01-23T16:11:42.093Z,9.36
2023-01-23T16:14:45.033Z,9.44
2023-01-23T16:17:50.724Z,9.44
2023-01-23T16:20:52.737Z,9.40
2023-01-23T16:23:55.734Z,9.49
2023-01-23T16:27:01.747Z,9.46
2023-01-23T16:30:04.129Z,9.49
2023-01-23T16:33:10.162Z,9.51
2023-01-23T16:36:23.364Z,9.40
2023-01-23T16:39:32.470Z,9.46
2023-01-23T16:42:35.081Z,9.27
2023-01-23T16:45:37.066Z,9.39
2023-01-23T16:48:39.128Z,9.56
2023-01-23T16:51:51.907Z,9.64
2023-01-23T16:54:55.308Z,9.70
2023-01-23T16:57:58.382Z,9.67
2023-01-23T17:01:10.922Z,9.58
2023-01-23T17:04:16.629Z,9.49
2023-01-23T17:07:20.437Z,9.51
2023-01-23T17:10:29.780Z,9.25
2023-01-23T17:13:37.275Z,9.20
2023-01-23T17:16:40.085Z,9.17
2023-01-23T17:19:57.046Z,9.18
2023-01-23T17:22:59.381Z,9.05
2023-01-23T17:26:02.565Z,9.24
2023-01-23T17:29:04.524Z,9.15
2023-01-23T17:32:06.891Z,9.19
2023-01-23T17:35:24.606Z,9.00
2023-01-23T17:38:32.065Z,9.09
2023-01-23T17:41:34.735Z,9.12
2023-01-23T17:44:36.996Z,9.19
2023-01-23T17:47:44.888Z,9.14
2023-01-23T17:50:49.396Z,8.98
2023-01-23T17:53:55.380Z,8.95
2023-01-23T17:57:02.699Z,8.98
2023-01-23T18:00:06.767Z,9.00
2023-01-23T18:03:15.399Z,8.99
2023-01-23T18:06:19.707Z,9.05
2023-01-23T18:09:22.473Z,9.07
2023-01-23T18:12:38.599Z,8.97
2023-01-23T18:16:01.072Z,9.00
2023-01-23T18:19:25.389Z,8.99
2023-01-23T18:22:28.808Z,8.95
2023-01-23T18:25:33.896Z,8.88
2023-01-23T18:28:51.424Z,8.87
2023-01-23T18:32:15.146Z,8.96
2023-01-23T18:35:48.553Z,8.91
2023-01-23T18:39:32.146Z,8.90
2023-01-23T18:42:50.841Z,8.99
2023-01-23T18:45:55.650Z,8.93
2023-01-23T18:49:00.842Z,8.85
2023-01-23T18:52:13.525Z,8.85
2023-01-23T18:55:24.998Z,8.85
2023-01-23T18:59:12.405Z,8.76
2023-01-23T19:02:42.266Z,8.71
2023-01-23T19:05:47.156Z,8.63
2023-01-23T19:08:51.942Z,8.59
2023-01-23T19:12:29.236Z,8.52
2023-01-23T19:15:37.832Z,8.48
2023-01-23T19:18:41.169Z,8.44
2023-01-23T19:21:49.198Z,8.46
2023-01-23T19:24:52.339Z,8.34
2023-01-23T19:27:58.082Z,8.35
2023-01-23T19:31:01.116Z,8.44
2023-01-23T19:34:06.279Z,8.40
2023-01-23T19:37:08.980Z,8.31
2023-01-23T19:40:18.695Z,8.27
2023-01-23T19:43:21.395Z,8.35
2023-01-23T19:46:30.372Z,8.27
2023-01-23T19:49:34.078Z,8.20
2023-01-23T19:52:38.035Z,8.22
2023-01-23T19:55:41.255Z,8.24
2023-01-23T19:58:44.019Z,8.25
2023-01-23T20:01:49.634Z,8.23
2023-01-23T20:04:52.054Z,8.15
2023-01-23T20:07:54.579Z,8.09
2023-01-23T20:10:57.239Z,7.99
2023-01-23T20:14:08.497Z,7.91
2023-01-23T20:17:16.435Z,7.94
2023-01-23T20:20:19.759Z,7.77
2023-01-23T20:23:22.275Z,7.79
2023-01-23T20:26:24.900Z,7.97
2023-01-23T20:29:29.089Z,7.94
2023-01-23T20:32:34.359Z,7.82
2023-01-23T20:35:39.941Z,7.83
2023-01-23T20:38:43.424Z,7.81
2023-01-23T20:41:45.628Z,7.78
2023-01-23T20:44:47.884Z,7.80
2023-01-23T20:47:50.190Z,7.86
2023-01-23T20:50:54.594Z,7.92
2023-01-23T20:53:58.087Z,7.88
2023-01-23T20:57:01.407Z,7.76
2023-01-23T21:00:04.487Z,7.80
2023-01-23T21:03:08.179Z,7.91
2023-01-23T21:06:11.756Z,7.98
2023-01-23T21:09:14.118Z,7.75
2023-01-23T21:12:18.898Z,7.77
2023-01-23T21:15:21.211Z,7.83
2023-01-23T21:18:23.296Z,7.75
2023-01-23T21:22:06.390Z,7.70
2023-01-23T21:25:09.009Z,7.82
2023-01-23T21:28:13.467Z,7.70
2023-01-23T21:31:21.301Z,7.60
2023-01-23T21:34:24.866Z,7.88
2023-01-23T21:37:27.289Z,7.86
2023-01-23T21:40:29.801Z,7.74
2023-01-23T21:43:32.662Z,7.53
2023-01-23T21:46:34.964Z,7.83
2023-01-23T21:49:37.548Z,7.78
2023-01-23T21:52:40.037Z,7.75
2023-01-23T21:55:42.164Z,7.83
2023-01-23T21:58:45.539Z,7.82
2023-01-23T22:01:47.779Z,7.77
2023-01-23T22:04:50.336Z,7.70
2023-01-23T22:07:52.328Z,7.87
2023-01-23T22:10:54.353Z,7.76
2023-01-23T22:13:56.609Z,7.90
2023-01-23T22:16:58.455Z,7.94
2023-01-23T22:20:02.191Z,7.67
2023-01-23T22:23:04.326Z,7.80
2023-01-23T22:26:09.242Z,7.69
2023-01-23T22:29:16.711Z,7.65
2023-01-23T22:32:19.487Z,7.67
2023-01-23T22:35:21.883Z,7.67
2023-01-23T22:38:24.372Z,7.56
2023-01-23T22:41:26.775Z,7.60
2023-01-23T22:44:30.143Z,7.65
2023-01-23T22:47:32.189Z,7.70
2023-01-23T22:50:34.453Z,7.58
2023-01-23T22:53:36.430Z,7.60
2023-01-23T22:56:38.756Z,7.60
2023-01-23T22:59:40.717Z,7.61
2023-01-23T23:02:42.778Z,7.48
2023-01-23T23:05:45.255Z,7.42
2023-01-23T23:08:48.517Z,7.39
2023-01-23T23:11:51.879Z,7.37
2023-01-23T23:14:54.096Z,7.26
2023-01-23T23:17:57.004Z,7.21
2023-01-23T23:21:08.509Z,7.22
2023-01-23T23:24:12.922Z,7.19
2023-01-23T23:27:15.032Z,7.15
2023-01-23T23:30:17.489Z,7.03
2023-01-23T23:33:20.635Z,7.09
2023-01-23T23:36:23.037Z,7.15
2023-01-23T23:39:26.054Z,6.95
2023-01-23T23:42:27.989Z,6.91
2023-01-23T23:45:30.147Z,6.73
2023-01-23T23:48:34.312Z,6.87
2023-01-23T23:51:36.498Z,6.93
2023-01-23T23:54:38.712Z,6.99
2023-01-23T23:57:41.931Z,6.80
